Baton Rouge, LA (70807)

5:12 AM CDT on April 21, 2015 (GMT -0500)
Baton Rouge Metro-Ryan | | Change Station
CLOSE
Current Station
Airport
Location: Baton Rouge,
Elevation: 69 ft
Nearby Weather Stations
Active Advisory: Flood Warning

Elev 69 ft 30.54 °N, 91.15 °W | Updated 19 minutes ago

Clear
Clear
57 °F
Feels Like 57 °F
N
0
Wind Variable Wind from North

Today
High -- | Low -- °F
--% Chance of Precip.
Yesterday
High -- | Low -- °F
Precip. -- in
6:31 AM 7:36 PM
Waxing Crescent, 9% visible
Pressure 29.99 in
Visibility 10.0 miles
Clouds Clear
Dew Point 52 °F
Humidity 83%
Rainfall 0.00 in
Snow Depth Not available.
UV 0 out of 12
Pollen 8.20 out of 12
Air Quality Not available.
Flu Activity Local Activity
METAR KBTR 210953Z AUTO 00000KT 10SM CLR 14/11 A2999 RMK AO2 SLP154 T01390111 TSNO $

More Conditions Fewer Conditions

Pressure 29.99 in
Visibility 10.0 miles
Clouds Clear
Dew Point 52 °F
Humidity 83%
Rainfall 0.00 in
Snow Depth Not available.
UV 0 out of 12
Pollen 8.20 out of 12
Air Quality Not available.
Flu Activity Local Activity
METAR KBTR 210953Z AUTO 00000KT 10SM CLR 14/11 A2999 RMK AO2 SLP154 T01390111 TSNO $

More Conditions Fewer Conditions

10-Day Weather Forecast

Almanac

Astronomy

Apr. 21, 2015 Rise Set
Actual Time
Civil Twilight
Nautical Twilight
Astronomical Twilight
Moon
Length of Visible Light
Length of Day
Tomorrow will be .
, % of the Moon is Illuminated

Today's Extremes

State Highs State Lows

Community

WunderPhotos

Upload Photos

1,815,337 photos uploaded!

WunderBlogs® & News

Nearby

Air Quality

  Air Quality AQ Index Pollutant
Not available.

Snow Depth

Station Depth Elevation

Earthquake Activity

City Distance Mag. Time & Date
Minimum magnitude displayed is 2.5.

Coastal Water Temperatures

Place Temperature

Stations

Nearby Weather Stations

Station Location Temp. Windchill Dew Point Humidity Wind Precip. Elev Updated Type
                   
Flood Warning
Statement as of 9:27 PM CDT on April 20, 2015

The Flood Warning continues for
the Mississippi River at Red River Landing.
* Until further notice.
* At 8:00 PM Monday the stage was 49.8 feet.
* Minor flooding is occurring and minor flooding is forecast.
* Flood stage is 48.0 feet.
* Forecast... the river will continue rising to near 51.1 feet by
early Saturday morning. The river is forecast to crest near 51.5
feet on may 4.
* Impact... at 51.0 feet... all river islands along The Reach from Red
River Landing to Baton Rouge will be inundated. Recreational camps
and river bottom farm land will be under water.
* Impact... at 48.0 feet... access roads will be inundated and
evacuation of all river islands must be complete. Protection of
people and property in the river bottom land on the river side of
the levees must be complete.


Lat... Lon 3103 9153 3102 9170 3071 9159 3074 9137